Time;durP1;ratioP1;P1;durP2;ratioP2;P2;SDS_P1;SDS_P2;PMS_P1;PMS_P2;Temp;Humidity;BMP_temperature;BMP_pressure;BME280_temperature;BME280_humidity;BME280_pressure;Samples;Min_cycle;Max_cycle;Signal;HPM_P1;HPM_P2
2020/12/26 00:01:36;;;;;;;12.83;7.37;;;2.40;99.90;;;;;;5055701;28;20036;-66
2020/12/26 00:04:03;;;;;;;13.43;8.03;;;2.20;99.90;;;;;;5055643;28;20473;-65
2020/12/26 00:06:29;;;;;;;12.27;7.30;;;2.10;99.90;;;;;;5052033;28;20489;-67
2020/12/26 00:08:54;;;;;;;14.90;7.80;;;2.10;99.90;;;;;;5054475;28;20033;-66
2020/12/26 00:11:20;;;;;;;13.90;8.10;;;2.20;99.90;;;;;;5054756;28;20067;-63
2020/12/26 00:13:49;;;;;;;14.30;7.32;;;2.00;99.90;;;;;;5054323;28;20025;-65
2020/12/26 00:16:15;;;;;;;16.67;7.88;;;2.00;99.90;;;;;;5053138;28;20044;-64
2020/12/26 00:18:45;;;;;;;11.70;7.80;;;2.00;99.90;;;;;;5052951;28;20028;-64
2020/12/26 00:21:15;;;;;;;20.05;8.30;;;2.00;99.90;;;;;;5053096;28;20559;-65
2020/12/26 00:23:41;;;;;;;13.68;7.78;;;2.00;99.90;;;;;;5053295;28;20029;-67
2020/12/26 00:26:07;;;;;;;15.23;8.67;;;1.90;99.90;;;;;;5053096;28;20021;-66
2020/12/26 00:28:33;;;;;;;13.77;8.23;;;1.90;99.90;;;;;;5052771;28;20154;-67
2020/12/26 00:30:59;;;;;;;16.65;8.68;;;1.90;99.90;;;;;;5053141;28;20118;-64
2020/12/26 00:33:25;;;;;;;16.73;8.40;;;1.90;99.90;;;;;;5053325;28;20381;-64
2020/12/26 00:35:50;;;;;;;13.97;8.33;;;1.90;99.90;;;;;;5052959;28;20029;-66
2020/12/26 00:38:16;;;;;;;14.20;9.73;;;1.90;99.90;;;;;;5052661;28;20029;-66
2020/12/26 00:40:42;;;;;;;21.15;10.50;;;1.90;99.90;;;;;;5052597;28;20535;-66
2020/12/26 00:43:08;;;;;;;14.80;8.38;;;2.00;99.90;;;;;;5051470;28;20132;-67
2020/12/26 00:45:33;;;;;;;18.80;9.00;;;1.90;99.90;;;;;;5052761;28;20144;-66
2020/12/26 00:47:59;;;;;;;21.83;12.37;;;2.00;99.90;;;;;;5052680;28;20408;-67
2020/12/26 00:50:25;;;;;;;24.87;12.13;;;2.00;99.90;;;;;;5052574;28;20017;-66
2020/12/26 00:52:51;;;;;;;20.25;10.88;;;2.00;99.90;;;;;;5052586;28;20048;-67
2020/12/26 00:55:16;;;;;;;21.40;11.23;;;2.00;99.90;;;;;;5052008;28;20074;-64
2020/12/26 00:57:42;;;;;;;21.27;11.80;;;2.00;99.90;;;;;;5054899;28;20263;-68
2020/12/26 01:00:09;;;;;;;21.20;11.55;;;2.00;99.90;;;;;;5054942;28;20163;-66
2020/12/26 01:02:35;;;;;;;25.33;14.95;;;2.10;99.90;;;;;;5054592;28;20029;-66
2020/12/26 01:05:01;;;;;;;18.07;10.00;;;2.10;99.90;;;;;;5064248;28;20366;-67
2020/12/26 01:07:26;;;;;;;34.55;19.52;;;2.00;99.90;;;;;;5056993;28;20287;-69
2020/12/26 01:09:52;;;;;;;16.63;10.37;;;2.00;99.90;;;;;;5056388;28;20029;-67
2020/12/26 01:12:18;;;;;;;23.70;13.27;;;2.00;99.90;;;;;;5056436;28;20029;-65
2020/12/26 01:14:43;;;;;;;25.20;14.93;;;2.10;99.90;;;;;;5056728;28;20348;-63
2020/12/26 01:17:10;;;;;;;19.80;11.37;;;2.10;99.90;;;;;;5055923;28;20057;-64
2020/12/26 01:19:36;;;;;;;19.08;10.10;;;2.10;99.90;;;;;;5055847;28;20469;-65
2020/12/26 01:22:02;;;;;;;23.25;14.13;;;2.10;99.90;;;;;;5054548;28;20025;-63
2020/12/26 01:24:27;;;;;;;22.63;13.20;;;2.10;99.90;;;;;;5055879;28;20025;-63
2020/12/26 01:26:53;;;;;;;15.57;9.63;;;2.00;99.90;;;;;;5055823;28;20029;-63
2020/12/26 01:29:19;;;;;;;20.47;10.47;;;2.00;99.90;;;;;;5056063;28;20410;-64
2020/12/26 01:31:54;;;;;;;16.00;9.30;;;2.00;99.90;;;;;;5055966;28;20017;-63
2020/12/26 01:34:20;;;;;;;16.13;9.60;;;2.10;99.90;;;;;;5055748;28;20021;-64
2020/12/26 01:36:53;;;;;;;16.05;9.40;;;2.10;99.90;;;;;;5055719;28;20104;-65
2020/12/26 01:39:20;;;;;;;19.40;9.90;;;2.10;99.90;;;;;;5082120;22;20048;-70
2020/12/26 01:41:53;;;;;;;17.15;10.45;;;2.10;99.90;;;;;;5074950;28;20480;-70
2020/12/26 01:44:20;;;;;;;17.98;9.70;;;2.20;99.90;;;;;;5090796;28;20020;-70
2020/12/26 01:46:52;;;;;;;16.50;10.77;;;2.30;99.90;;;;;;5090688;28;20024;-69
2020/12/26 01:49:20;;;;;;;19.40;10.18;;;2.30;99.90;;;;;;5090416;28;20037;-70
2020/12/26 01:51:47;;;;;;;19.92;9.95;;;2.30;99.90;;;;;;5074794;28;20039;-69
2020/12/26 01:54:13;;;;;;;15.70;9.63;;;2.50;99.90;;;;;;5074751;28;20028;-70
2020/12/26 01:56:40;;;;;;;17.65;9.60;;;2.60;99.90;;;;;;5073286;28;20384;-70
2020/12/26 01:59:06;;;;;;;;;;;2.70;99.90;;;;;;5074787;28;20479;-69
2020/12/26 02:01:36;;;;;;;15.70;9.32;;;2.60;99.90;;;;;;5074548;28;19953;-70
2020/12/26 02:04:02;;;;;;;15.50;9.35;;;2.60;99.90;;;;;;5073131;28;20021;-69
2020/12/26 02:06:32;;;;;;;18.20;9.60;;;2.80;99.90;;;;;;5072964;28;20029;-68
2020/12/26 02:08:59;;;;;;;16.63;8.77;;;2.90;99.90;;;;;;5074467;28;20039;-68
2020/12/26 02:11:29;;;;;;;19.05;9.73;;;2.70;99.90;;;;;;5072961;28;20028;-69
2020/12/26 02:13:56;;;;;;;15.70;9.10;;;2.60;99.90;;;;;;5072837;28;20028;-70
2020/12/26 02:16:21;;;;;;;16.30;9.45;;;2.50;99.90;;;;;;5073586;28;20459;-69
2020/12/26 02:18:48;;;;;;;16.30;9.27;;;2.40;99.90;;;;;;5072930;28;20024;-69
2020/12/26 02:21:13;;;;;;;15.95;9.15;;;2.40;99.90;;;;;;5072599;28;20027;-69
2020/12/26 02:23:46;;;;;;;16.70;10.07;;;2.30;99.90;;;;;;5073284;28;20024;-69
2020/12/26 02:26:12;;;;;;;15.25;9.40;;;2.30;99.90;;;;;;5089470;28;20047;-68
2020/12/26 02:28:38;;;;;;;15.73;9.45;;;2.30;99.90;;;;;;5073921;28;20085;-68
2020/12/26 02:31:05;;;;;;;18.00;10.10;;;2.20;99.90;;;;;;5072684;28;20037;-69
2020/12/26 02:33:31;;;;;;;15.63;10.00;;;2.20;99.90;;;;;;5089211;28;20024;-68
2020/12/26 02:35:57;;;;;;;15.48;9.75;;;2.20;99.90;;;;;;5073661;28;20026;-69
2020/12/26 02:38:22;;;;;;;17.98;10.13;;;2.10;99.90;;;;;;5072555;28;20043;-68
2020/12/26 02:40:54;;;;;;;17.70;10.30;;;2.20;99.90;;;;;;5089021;28;20489;-70
2020/12/26 02:43:25;;;;;;;18.42;10.35;;;2.10;99.90;;;;;;5089227;28;20396;-69
2020/12/26 02:45:52;;;;;;;18.08;10.48;;;2.10;99.90;;;;;;5073894;28;20044;-68
2020/12/26 02:48:17;;;;;;;20.45;11.70;;;2.10;99.90;;;;;;5073358;28;20024;-69
2020/12/26 02:50:43;;;;;;;16.47;10.43;;;2.30;99.90;;;;;;5089555;28;20533;-69
2020/12/26 02:53:10;;;;;;;17.08;10.35;;;2.20;99.90;;;;;;5089130;28;20024;-69
2020/12/26 02:55:36;;;;;;;19.25;10.57;;;2.20;99.90;;;;;;5073499;28;20373;-69
2020/12/26 02:58:02;;;;;;;19.10;11.02;;;2.10;99.90;;;;;;5089279;28;20020;-69
2020/12/26 03:00:28;;;;;;;19.77;10.95;;;2.10;99.90;;;;;;5073296;28;20033;-69
2020/12/26 03:02:53;;;;;;;21.03;10.53;;;2.10;99.90;;;;;;5073344;28;20388;-68
2020/12/26 03:05:20;;;;;;;20.60;11.57;;;2.10;99.90;;;;;;5073207;28;20263;-68
2020/12/26 03:07:45;;;;;;;16.92;10.50;;;2.10;99.90;;;;;;5073044;28;20503;-68
2020/12/26 03:10:11;;;;;;;18.07;11.13;;;2.20;99.90;;;;;;5073184;28;20029;-68
2020/12/26 03:12:37;;;;;;;18.10;10.77;;;2.20;99.90;;;;;;5088744;28;20420;-68
2020/12/26 03:15:04;;;;;;;20.80;11.07;;;2.20;99.90;;;;;;5073018;28;20024;-68
2020/12/26 03:17:29;;;;;;;20.80;10.75;;;2.20;99.90;;;;;;5073608;28;20032;-68
2020/12/26 03:19:55;;;;;;;20.20;11.87;;;2.20;99.90;;;;;;5072911;28;20027;-69
2020/12/26 03:22:21;;;;;;;19.80;10.98;;;2.20;99.90;;;;;;5088495;28;20396;-69
2020/12/26 03:24:47;;;;;;;19.53;11.37;;;2.20;99.90;;;;;;5072919;28;20056;-68
2020/12/26 03:27:12;;;;;;;22.70;11.97;;;2.40;99.90;;;;;;5088006;28;20021;-69
2020/12/26 03:29:38;;;;;;;17.43;11.10;;;2.40;99.90;;;;;;5072936;28;20082;-68
2020/12/26 03:32:03;;;;;;;22.93;10.70;;;2.30;99.90;;;;;;5073635;28;20218;-69
2020/12/26 03:34:29;;;;;;;20.03;11.20;;;2.20;99.90;;;;;;5088382;28;20021;-68
2020/12/26 03:36:55;;;;;;;22.90;11.63;;;2.20;99.90;;;;;;5072832;28;20017;-68
2020/12/26 03:39:20;;;;;;;22.73;11.47;;;2.10;99.90;;;;;;5088243;28;20033;-68
2020/12/26 03:41:46;;;;;;;24.87;13.33;;;2.20;99.90;;;;;;5088954;28;20025;-68
2020/12/26 03:44:11;;;;;;;22.23;11.70;;;2.10;99.90;;;;;;5072818;28;20125;-68
2020/12/26 03:46:37;;;;;;;22.23;11.63;;;2.10;99.90;;;;;;5072572;28;20055;-69
2020/12/26 03:49:03;;;;;;;20.43;11.00;;;2.20;99.90;;;;;;5088100;28;20384;-68
2020/12/26 03:51:29;;;;;;;20.20;10.97;;;2.20;99.90;;;;;;5073003;28;20025;-68
2020/12/26 03:53:54;;;;;;;19.80;11.02;;;2.20;99.90;;;;;;5088417;28;20033;-68
2020/12/26 03:56:20;;;;;;;23.30;10.07;;;2.40;99.90;;;;;;5088497;28;20119;-69
2020/12/26 03:58:46;;;;;;;22.40;11.48;;;2.50;99.90;;;;;;5088544;28;20032;-70
2020/12/26 04:01:12;;;;;;;22.05;11.40;;;2.50;99.90;;;;;;5073300;28;20032;-70
2020/12/26 04:03:38;;;;;;;21.48;10.70;;;2.50;99.90;;;;;;5073247;28;20028;-70
2020/12/26 04:06:04;;;;;;;23.38;11.35;;;2.30;99.90;;;;;;5073323;28;20035;-70
2020/12/26 04:08:30;;;;;;;18.30;10.68;;;2.30;99.90;;;;;;5088643;28;20025;-70
2020/12/26 04:10:56;;;;;;;18.08;11.70;;;2.30;99.90;;;;;;5088062;28;20024;-69
2020/12/26 04:13:22;;;;;;;17.38;10.65;;;2.40;99.90;;;;;;5072869;28;20499;-69
2020/12/26 04:15:47;;;;;;;18.00;11.02;;;2.30;99.90;;;;;;5073120;28;20048;-69
2020/12/26 04:18:13;;;;;;;18.83;10.97;;;2.40;99.90;;;;;;5072467;28;20036;-69
2020/12/26 04:20:39;;;;;;;16.50;10.80;;;2.40;99.90;;;;;;5072684;28;20104;-69
2020/12/26 04:23:04;;;;;;;18.40;11.07;;;2.30;99.90;;;;;;5072283;28;20036;-69
2020/12/26 04:25:30;;;;;;;22.20;11.30;;;2.10;99.90;;;;;;5072433;28;20153;-69
2020/12/26 04:27:56;;;;;;;20.27;11.47;;;2.00;99.90;;;;;;5072311;28;20039;-69
2020/12/26 04:30:22;;;;;;;16.58;10.70;;;2.00;99.90;;;;;;5072432;28;20033;-70
2020/12/26 04:32:48;;;;;;;15.70;10.23;;;2.10;99.90;;;;;;5072760;28;20039;-69
2020/12/26 04:35:14;;;;;;;17.83;11.03;;;2.00;99.90;;;;;;5087744;28;20024;-69
2020/12/26 04:37:39;;;;;;;17.67;10.37;;;1.90;99.90;;;;;;5074831;28;20052;-69
2020/12/26 04:40:05;;;;;;;23.73;10.93;;;1.90;99.90;;;;;;5075906;28;20043;-70
2020/12/26 04:42:33;;;;;;;18.73;11.03;;;1.80;99.90;;;;;;5075999;28;20333;-69
2020/12/26 04:44:59;;;;;;;23.48;11.10;;;1.90;99.90;;;;;;5091567;28;20254;-69
2020/12/26 04:47:30;;;;;;;25.00;11.35;;;1.90;99.90;;;;;;5075824;28;20033;-69
2020/12/26 04:50:00;;;;;;;17.95;9.98;;;1.90;99.90;;;;;;5091402;28;20214;-69
2020/12/26 04:52:33;;;;;;;18.17;10.57;;;2.00;99.90;;;;;;5075809;28;20048;-70
2020/12/26 04:55:04;;;;;;;22.27;11.07;;;2.10;99.90;;;;;;5075681;28;20016;-69
2020/12/26 04:57:37;;;;;;;22.67;10.85;;;2.10;99.90;;;;;;5091520;28;20512;-69
2020/12/26 05:00:06;;;;;;;22.10;10.73;;;2.10;99.90;;;;;;5091268;28;20036;-69
2020/12/26 05:02:40;;;;;;;17.92;10.60;;;2.00;99.90;;;;;;5075737;28;20024;-69
2020/12/26 05:05:07;;;;;;;20.55;11.27;;;1.90;99.90;;;;;;5091644;28;20411;-69
2020/12/26 05:07:32;;;;;;;;;;;2.00;99.90;;;;;;5094249;28;20020;-69
2020/12/26 05:09:59;;;;;;;20.17;10.80;;;1.90;99.90;;;;;;5075850;28;19904;-70
2020/12/26 05:12:24;;;;;;;20.10;10.77;;;1.80;99.90;;;;;;5076811;28;20025;-70
2020/12/26 05:14:51;;;;;;;22.00;11.20;;;1.80;99.90;;;;;;5076242;28;20027;-69
2020/12/26 05:17:20;;;;;;;20.83;12.63;;;1.80;99.90;;;;;;5091096;28;20613;-70
2020/12/26 05:19:47;;;;;;;22.33;10.77;;;1.80;99.90;;;;;;5090980;28;20027;-69
2020/12/26 05:22:12;;;;;;;20.38;10.85;;;1.80;99.90;;;;;;5075452;28;20025;-70
2020/12/26 05:24:38;;;;;;;21.97;12.33;;;1.80;99.90;;;;;;5075248;28;20111;-70
2020/12/26 05:27:04;;;;;;;20.50;10.97;;;1.70;99.90;;;;;;5075356;28;20047;-70
2020/12/26 05:29:36;;;;;;;21.95;11.98;;;1.70;99.90;;;;;;5075325;28;20259;-70
2020/12/26 05:32:04;;;;;;;25.17;14.25;;;1.80;99.90;;;;;;5091268;28;20060;-69
2020/12/26 05:34:38;;;;;;;22.88;12.43;;;1.70;99.90;;;;;;5075919;28;20027;-69
2020/12/26 05:37:04;;;;;;;27.00;13.60;;;1.60;99.90;;;;;;5091453;28;20021;-69
2020/12/26 05:39:31;;;;;;;24.38;12.43;;;1.50;99.90;;;;;;5091099;28;20468;-69
2020/12/26 05:41:57;;;;;;;21.55;11.13;;;1.60;99.90;;;;;;5091693;28;20032;-69
2020/12/26 05:44:33;;;;;;;23.40;13.10;;;1.60;99.90;;;;;;5091859;28;20017;-69
2020/12/26 05:47:01;;;;;;;20.20;10.95;;;1.70;99.90;;;;;;5074850;28;20707;-69
2020/12/26 05:49:30;;;;;;;21.83;11.77;;;1.70;99.90;;;;;;5073829;28;20044;-69
2020/12/26 05:51:58;;;;;;;20.63;11.00;;;1.70;99.90;;;;;;5074822;28;20020;-69
2020/12/26 05:54:25;;;;;;;22.05;11.18;;;1.70;99.90;;;;;;5074799;28;20017;-69
2020/12/26 05:57:07;;;;;;;27.88;13.07;;;1.70;99.90;;;;;;5074721;28;20025;-69
2020/12/26 05:59:33;;;;;;;20.55;11.55;;;1.70;99.90;;;;;;5090034;28;20025;-69
2020/12/26 06:02:29;;;;;;;21.50;11.57;;;1.70;99.90;;;;;;5074899;28;20020;-70
2020/12/26 06:04:56;;;;;;;19.50;10.75;;;1.70;99.90;;;;;;5074476;28;20024;-70
2020/12/26 06:07:25;;;;;;;20.95;10.30;;;1.70;99.90;;;;;;5089785;28;20111;-70
2020/12/26 06:09:52;;;;;;;22.15;11.18;;;1.90;99.90;;;;;;5089868;28;20226;-68
2020/12/26 06:12:20;;;;;;;21.80;10.32;;;1.90;99.90;;;;;;5089731;28;20016;-68
2020/12/26 06:14:48;;;;;;;19.35;10.27;;;1.90;99.90;;;;;;5089833;28;20086;-68
2020/12/26 06:17:21;;;;;;;21.27;10.45;;;2.10;99.90;;;;;;5089845;28;20021;-68
2020/12/26 06:19:53;;;;;;;20.40;8.75;;;2.00;99.90;;;;;;5074761;28;20036;-68
2020/12/26 06:22:19;;;;;;;16.70;8.98;;;2.30;99.90;;;;;;5074280;28;20021;-69
2020/12/26 06:24:46;;;;;;;18.70;9.83;;;2.30;99.90;;;;;;5074478;28;20086;-69
2020/12/26 06:27:14;;;;;;;17.02;8.90;;;2.30;99.90;;;;;;5075042;28;20025;-69
2020/12/26 06:29:43;;;;;;;20.17;10.32;;;2.30;99.90;;;;;;5075009;28;20107;-69
2020/12/26 06:32:11;;;;;;;28.65;13.50;;;2.30;99.90;;;;;;5074806;28;20024;-69
2020/12/26 06:34:39;;;;;;;23.83;11.25;;;2.30;99.90;;;;;;5090444;28;20043;-69
2020/12/26 06:37:05;;;;;;;19.52;9.25;;;2.20;99.90;;;;;;5089920;28;20481;-69
2020/12/26 06:39:33;;;;;;;16.05;7.90;;;2.20;99.90;;;;;;5073003;28;20484;-69
2020/12/26 06:42:18;;;;;;;18.17;9.25;;;2.60;99.90;;;;;;5074306;28;20150;-69
2020/12/26 06:44:48;;;;;;;17.67;9.38;;;2.40;99.90;;;;;;5074324;28;20024;-70
2020/12/26 06:47:38;;;;;;;18.77;8.90;;;2.30;99.90;;;;;;5074527;28;20028;-69
2020/12/26 06:50:25;;;;;;;18.73;9.07;;;2.30;99.90;;;;;;5074347;28;20081;-68
2020/12/26 06:52:51;;;;;;;23.58;9.05;;;2.30;99.90;;;;;;5073782;28;20048;-69
2020/12/26 06:55:44;;;;;;;22.33;9.00;;;2.20;99.90;;;;;;5072211;28;20132;-69
2020/12/26 06:58:30;;;;;;;15.70;8.05;;;2.20;99.90;;;;;;5073520;28;20029;-69
2020/12/26 07:00:56;;;;;;;17.30;8.82;;;2.10;99.90;;;;;;5066276;28;20056;-69
2020/12/26 07:03:28;;;;;;;16.10;9.07;;;2.10;99.90;;;;;;5073358;28;20055;-69
2020/12/26 07:05:55;;;;;;;18.75;9.55;;;2.10;99.90;;;;;;5073384;28;20024;-69
2020/12/26 07:08:29;;;;;;;17.65;8.70;;;2.10;99.90;;;;;;5073113;28;20028;-69
2020/12/26 07:10:56;;;;;;;18.50;9.70;;;2.00;99.90;;;;;;5073260;28;20051;-69
2020/12/26 07:13:45;;;;;;;15.63;9.48;;;2.00;99.90;;;;;;5073308;28;20096;-69
2020/12/26 07:16:36;;;;;;;19.15;9.60;;;2.00;99.90;;;;;;5073422;28;20028;-69
2020/12/26 07:19:21;;;;;;;17.33;9.32;;;2.00;99.90;;;;;;5071637;28;20028;-69
2020/12/26 07:22:02;;;;;;;17.05;9.43;;;2.00;99.90;;;;;;5071693;28;20029;-69
2020/12/26 07:24:33;;;;;;;17.48;9.85;;;2.10;99.90;;;;;;5071757;28;20020;-69
2020/12/26 07:27:17;;;;;;;19.55;10.05;;;2.10;99.90;;;;;;5073470;28;20024;-69
2020/12/26 07:30:02;;;;;;;25.85;10.07;;;2.10;99.90;;;;;;5073185;28;20081;-68
2020/12/26 07:32:38;;;;;;;19.83;9.90;;;2.10;99.90;;;;;;5073387;28;20157;-69
2020/12/26 07:35:14;;;;;;;21.10;9.25;;;2.10;99.90;;;;;;5071802;28;20021;-70
2020/12/26 07:37:54;;;;;;;22.85;10.27;;;2.10;99.90;;;;;;5073201;28;20021;-69
2020/12/26 07:40:30;;;;;;;21.35;9.80;;;2.10;99.90;;;;;;5073182;28;20127;-69
2020/12/26 07:42:59;;;;;;;18.80;9.90;;;2.20;99.90;;;;;;5073169;28;20033;-69
2020/12/26 07:45:25;;;;;;;20.55;10.40;;;2.10;99.90;;;;;;5072824;28;20040;-69
2020/12/26 07:47:53;;;;;;;22.65;10.02;;;2.10;99.90;;;;;;5088205;28;20025;-69
2020/12/26 07:50:21;;;;;;;23.13;9.77;;;2.00;99.90;;;;;;5072876;28;20024;-69
2020/12/26 07:52:57;;;;;;;20.17;10.45;;;2.00;99.90;;;;;;5071594;28;20017;-69
2020/12/26 07:55:24;;;;;;;22.02;9.25;;;2.00;99.90;;;;;;5073244;28;20433;-69
2020/12/26 07:58:00;;;;;;;21.02;10.63;;;2.00;99.90;;;;;;5072793;28;20512;-70
2020/12/26 08:00:27;;;;;;;23.25;9.35;;;2.00;99.90;;;;;;5072720;28;20024;-70
2020/12/26 08:02:57;;;;;;;19.98;10.25;;;2.10;99.90;;;;;;5072708;28;20029;-70
2020/12/26 08:05:30;;;;;;;18.50;10.07;;;2.10;99.90;;;;;;5072727;28;20032;-68
2020/12/26 08:07:57;;;;;;;24.13;9.90;;;2.00;99.90;;;;;;5072596;28;20430;-70
2020/12/26 08:10:24;;;;;;;21.33;9.88;;;2.10;99.90;;;;;;5072537;28;20548;-69
2020/12/26 08:12:59;;;;;;;20.58;10.70;;;2.00;99.90;;;;;;5075559;28;20222;-69
2020/12/26 08:15:31;;;;;;;21.10;10.00;;;2.00;99.90;;;;;;5092227;28;20024;-68
2020/12/26 08:18:02;;;;;;;21.10;10.75;;;2.00;99.90;;;;;;5076763;28;20029;-69
2020/12/26 08:20:29;;;;;;;22.85;9.63;;;2.00;99.90;;;;;;5076571;28;20542;-69
2020/12/26 08:22:56;;;;;;;18.98;10.10;;;2.00;99.90;;;;;;5075240;28;20420;-69
2020/12/26 08:25:26;;;;;;;;;;;2.00;99.90;;;;;;5092810;28;20032;-69
2020/12/26 08:27:52;;;;;;;20.30;9.40;;;2.10;99.90;;;;;;5075728;28;19931;-69
2020/12/26 08:30:22;;;;;;;25.13;10.60;;;2.10;99.90;;;;;;5076026;28;20043;-69
2020/12/26 08:33:09;;;;;;;23.67;10.25;;;2.20;99.90;;;;;;5076606;28;20055;-69
2020/12/26 08:35:44;;;;;;;17.87;9.37;;;2.20;99.90;;;;;;5077005;28;20092;-72
2020/12/26 08:38:22;;;;;;;18.95;9.65;;;2.30;99.90;;;;;;5076381;28;20267;-73
2020/12/26 08:40:54;;;;;;;26.00;10.35;;;2.30;99.90;;;;;;5074725;28;20032;-73
2020/12/26 08:43:20;;;;;;;22.77;10.02;;;2.30;99.90;;;;;;5092047;28;20102;-72
2020/12/26 08:45:46;;;;;;;20.10;10.18;;;2.40;99.90;;;;;;5091803;28;20032;-72
2020/12/26 08:48:22;;;;;;;20.27;9.77;;;2.40;99.90;;;;;;5092286;28;20116;-72
2020/12/26 08:51:00;;;;;;;23.00;10.68;;;2.40;99.90;;;;;;5074803;28;20048;-73
2020/12/26 08:53:25;;;;;;;;;;;2.50;99.90;;;;;;5092219;28;20119;-73
2020/12/26 08:55:55;;;;;;;21.23;9.57;;;2.50;99.90;;;;;;5077781;28;19936;-72
2020/12/26 08:58:29;;;;;;;22.77;10.20;;;2.50;99.90;;;;;;5076233;28;20048;-72
2020/12/26 09:00:57;;;;;;;22.80;9.90;;;2.60;99.90;;;;;;5091680;28;20064;-73
2020/12/26 09:03:26;;;;;;;21.52;10.68;;;2.60;99.90;;;;;;5075906;28;20048;-72
2020/12/26 09:05:55;;;;;;;23.80;9.88;;;2.60;99.90;;;;;;5092200;28;20031;-66
2020/12/26 09:08:28;;;;;;;20.75;10.30;;;2.70;99.90;;;;;;5074602;28;20059;-72
2020/12/26 09:11:05;;;;;;;17.67;9.93;;;2.70;99.90;;;;;;5076001;28;20074;-69
2020/12/26 09:13:44;;;;;;;18.35;9.82;;;2.70;99.90;;;;;;5076409;28;20075;-71
2020/12/26 09:16:11;;;;;;;17.88;9.90;;;2.80;99.90;;;;;;5074620;28;20115;-71
2020/12/26 09:18:42;;;;;;;21.33;10.38;;;2.80;99.90;;;;;;5075792;28;20028;-71
2020/12/26 09:21:19;;;;;;;22.45;10.80;;;2.80;99.90;;;;;;5092011;28;20024;-71
2020/12/26 09:23:45;;;;;;;17.65;10.68;;;2.80;99.90;;;;;;5090218;28;20028;-71
2020/12/26 09:26:12;;;;;;;20.70;10.03;;;2.80;99.90;;;;;;5075641;28;20016;-71
2020/12/26 09:28:45;;;;;;;19.35;10.73;;;2.80;99.90;;;;;;5091082;28;20442;-71
2020/12/26 09:31:12;;;;;;;23.52;13.15;;;2.90;99.90;;;;;;5091046;28;20158;-71
2020/12/26 09:33:38;;;;;;;18.52;10.75;;;2.90;99.90;;;;;;5075434;28;20095;-70
2020/12/26 09:36:06;;;;;;;21.50;10.35;;;2.90;99.90;;;;;;5075623;28;20027;-72
2020/12/26 09:38:31;;;;;;;20.33;10.40;;;2.90;99.90;;;;;;5075154;28;20025;-71
2020/12/26 09:40:57;;;;;;;21.20;11.17;;;2.90;99.90;;;;;;5075041;28;20035;-71
2020/12/26 09:43:23;;;;;;;21.00;10.83;;;2.90;99.90;;;;;;5075184;28;20025;-71
2020/12/26 09:45:49;;;;;;;17.98;10.30;;;3.00;99.90;;;;;;5074933;28;20128;-71
2020/12/26 09:48:14;;;;;;;44.83;22.13;;;2.90;99.90;;;;;;5075015;28;20103;-70
2020/12/26 09:50:40;;;;;;;22.27;12.07;;;3.00;99.90;;;;;;5090595;28;20507;-71
2020/12/26 09:53:06;;;;;;;32.20;15.47;;;3.00;99.90;;;;;;5074903;28;20021;-70
2020/12/26 09:55:32;;;;;;;21.93;10.93;;;2.90;99.90;;;;;;5090367;28;20020;-71
2020/12/26 09:57:57;;;;;;;21.70;11.23;;;3.00;99.90;;;;;;5090538;28;20135;-71
2020/12/26 10:00:23;;;;;;;23.27;11.80;;;3.10;99.90;;;;;;5074986;28;20021;-71
2020/12/26 10:02:52;;;;;;;26.38;11.85;;;3.30;99.90;;;;;;5075469;28;20086;-71
2020/12/26 10:05:19;;;;;;;19.67;11.18;;;3.40;99.90;;;;;;5090194;28;20028;-71
2020/12/26 10:07:45;;;;;;;19.80;10.75;;;3.50;99.90;;;;;;5074705;28;20020;-70
2020/12/26 10:10:10;;;;;;;24.73;11.37;;;3.60;99.90;;;;;;5089987;28;20024;-70
2020/12/26 10:12:37;;;;;;;19.83;9.67;;;3.80;99.90;;;;;;5074404;28;20477;-70
2020/12/26 10:15:03;;;;;;;;;;;4.00;99.90;;;;;;5073453;28;20098;-70
2020/12/26 10:17:29;;;;;;;17.50;9.50;;;4.20;99.90;;;;;;5073361;28;19905;-71
2020/12/26 10:19:54;;;;;;;22.87;11.50;;;4.40;99.90;;;;;;5076032;28;20020;-72
2020/12/26 10:22:20;;;;;;;19.30;9.70;;;4.50;99.90;;;;;;5074265;28;20025;-72
2020/12/26 10:24:46;;;;;;;20.17;9.53;;;4.70;99.90;;;;;;5074562;28;20372;-72
2020/12/26 10:27:11;;;;;;;18.90;9.43;;;4.90;99.90;;;;;;5074390;28;20028;-71
2020/12/26 10:29:37;;;;;;;20.00;8.83;;;5.10;99.90;;;;;;5074042;28;20445;-72
2020/12/26 10:32:04;;;;;;;16.57;8.90;;;5.00;99.90;;;;;;5074011;28;20512;-72
2020/12/26 10:34:30;;;;;;;15.68;9.57;;;4.90;99.90;;;;;;5072625;28;20029;-72
2020/12/26 10:36:55;;;;;;;13.20;7.83;;;4.90;99.90;;;;;;5074314;28;20485;-71
2020/12/26 10:39:21;;;;;;;17.73;9.55;;;4.80;99.90;;;;;;5074078;28;20033;-72
2020/12/26 10:41:47;;;;;;;17.30;9.20;;;4.70;99.90;;;;;;5073930;28;20036;-72
2020/12/26 10:44:13;;;;;;;16.70;9.50;;;4.70;99.90;;;;;;5074120;28;20534;-72
2020/12/26 10:46:39;;;;;;;14.77;8.77;;;4.80;99.90;;;;;;5073700;28;20039;-71
2020/12/26 10:49:05;;;;;;;;;;;4.90;99.90;;;;;;5072444;28;20044;-72
2020/12/26 10:51:31;;;;;;;14.77;8.05;;;4.90;99.90;;;;;;5073702;28;19916;-71
2020/12/26 10:53:56;;;;;;;17.15;8.50;;;4.80;99.90;;;;;;5072289;28;20142;-71
2020/12/26 10:56:22;;;;;;;14.13;8.50;;;4.90;99.90;;;;;;5073586;28;20029;-71
2020/12/26 10:58:48;;;;;;;14.57;8.27;;;4.80;99.90;;;;;;5072157;28;20035;-72
2020/12/26 11:01:13;;;;;;;14.20;8.33;;;4.70;99.90;;;;;;5072027;28;20476;-72
2020/12/26 11:03:39;;;;;;;15.60;8.70;;;4.60;99.90;;;;;;5073523;28;20040;-71
2020/12/26 11:06:04;;;;;;;14.73;8.40;;;4.50;99.90;;;;;;5073896;28;20039;-71
2020/12/26 11:08:30;;;;;;;15.77;8.13;;;4.40;99.90;;;;;;5073215;28;20086;-72
2020/12/26 11:10:56;;;;;;;17.10;9.10;;;4.40;99.90;;;;;;5072070;28;20060;-71
2020/12/26 11:13:21;;;;;;;15.33;8.67;;;4.30;99.90;;;;;;5073337;28;20031;-71
2020/12/26 11:15:47;;;;;;;14.60;9.07;;;4.30;99.90;;;;;;5072614;28;20460;-71
2020/12/26 11:18:12;;;;;;;17.33;8.53;;;4.30;99.90;;;;;;5071921;28;20025;-72
2020/12/26 11:20:38;;;;;;;18.60;9.97;;;4.40;99.90;;;;;;5071724;28;20476;-72
2020/12/26 11:23:04;;;;;;;15.93;8.90;;;4.40;99.90;;;;;;5073081;28;20111;-72
2020/12/26 11:25:29;;;;;;;15.40;9.07;;;4.60;99.90;;;;;;5071978;28;20032;-72
2020/12/26 11:27:55;;;;;;;16.40;8.40;;;4.60;99.90;;;;;;5073071;28;20060;-71
2020/12/26 11:30:20;;;;;;;15.67;9.10;;;4.50;99.90;;;;;;5071689;28;20473;-71
2020/12/26 11:32:46;;;;;;;13.90;8.83;;;4.50;99.90;;;;;;5072820;28;20362;-71
2020/12/26 11:35:12;;;;;;;17.07;9.23;;;4.50;99.90;;;;;;5071796;28;20017;-70
2020/12/26 11:37:37;;;;;;;16.77;9.33;;;4.50;99.90;;;;;;5071712;28;20024;-71
2020/12/26 11:40:03;;;;;;;19.50;10.47;;;4.50;99.90;;;;;;5072845;28;20039;-71
2020/12/26 11:42:29;;;;;;;14.93;9.02;;;4.50;99.90;;;;;;5073010;28;20461;-70
2020/12/26 11:44:55;;;;;;;19.07;9.93;;;4.40;99.90;;;;;;5072888;28;20111;-69
2020/12/26 11:47:20;;;;;;;20.03;9.37;;;4.50;99.90;;;;;;5072089;28;20029;-70
2020/12/26 11:49:46;;;;;;;16.67;9.43;;;4.40;99.90;;;;;;5072211;28;20020;-70
2020/12/26 11:52:12;;;;;;;18.00;9.17;;;4.40;99.90;;;;;;5072968;28;20066;-70
2020/12/26 11:54:37;;;;;;;22.07;9.20;;;4.40;99.90;;;;;;5073009;28;20092;-70
2020/12/26 11:57:03;;;;;;;18.47;9.87;;;4.50;99.90;;;;;;5072928;28;20381;-70
2020/12/26 11:59:28;;;;;;;18.53;9.13;;;4.40;99.90;;;;;;5072953;28;20028;-71
2020/12/26 12:01:54;;;;;;;20.53;10.40;;;4.40;99.90;;;;;;5073036;28;20429;-71
2020/12/26 12:04:25;;;;;;;17.15;9.90;;;4.40;99.90;;;;;;5088186;28;20473;-70
2020/12/26 12:06:51;;;;;;;16.63;10.18;;;4.50;99.90;;;;;;5073891;28;20055;-71
2020/12/26 12:09:16;;;;;;;33.43;14.20;;;4.50;99.90;;;;;;5072528;28;20481;-71
2020/12/26 12:11:42;;;;;;;19.23;10.77;;;4.50;99.90;;;;;;5088317;28;20047;-71
2020/12/26 12:14:08;;;;;;;27.77;13.97;;;4.50;99.90;;;;;;5088099;28;20048;-71
2020/12/26 12:16:34;;;;;;;23.70;11.93;;;4.50;99.90;;;;;;5088133;28;20020;-71
2020/12/26 12:18:59;;;;;;;25.33;12.33;;;4.60;99.90;;;;;;5073216;28;20154;-70
2020/12/26 12:21:25;;;;;;;18.70;8.50;;;4.60;99.90;;;;;;5072960;28;20050;-71
2020/12/26 12:23:50;;;;;;;19.27;9.50;;;4.60;99.90;;;;;;5071246;28;20029;-71
2020/12/26 12:26:28;;;;;;;24.83;10.30;;;4.60;99.90;;;;;;5073106;28;20028;-71
2020/12/26 12:28:56;;;;;;;15.98;8.85;;;4.50;99.90;;;;;;5089984;28;20111;-71
2020/12/26 12:31:23;;;;;;;16.00;9.05;;;4.50;99.90;;;;;;5077632;28;20031;-71
2020/12/26 12:33:49;;;;;;;21.35;9.63;;;4.40;99.90;;;;;;5071924;28;20027;-71
2020/12/26 12:36:15;;;;;;;17.67;8.95;;;4.40;99.90;;;;;;5071613;28;20504;-71
2020/12/26 12:38:41;;;;;;;17.77;9.90;;;4.40;99.90;;;;;;5072765;28;20041;-71
2020/12/26 12:41:07;;;;;;;16.55;9.70;;;4.40;99.90;;;;;;5073044;28;20091;-71
2020/12/26 12:43:32;;;;;;;18.63;9.30;;;4.50;99.90;;;;;;5075576;28;20025;-70
2020/12/26 12:45:58;;;;;;;17.30;9.80;;;4.50;99.90;;;;;;5072398;28;20027;-70
2020/12/26 12:48:24;;;;;;;17.43;8.33;;;4.50;99.90;;;;;;5072209;28;20029;-70